createdAt,value
2023-04-24T00:00:43.428Z,97638.97
2023-04-24T00:03:12.176Z,97634.50
2023-04-24T00:05:41.363Z,97651.16
2023-04-24T00:08:09.642Z,97643.22
2023-04-24T00:10:38.472Z,97646.84
2023-04-24T00:13:06.677Z,97641.56
2023-04-24T00:15:36.440Z,97656.19
2023-04-24T00:18:05.008Z,97654.78
2023-04-24T00:20:34.609Z,97653.81
2023-04-24T00:23:03.323Z,97638.31
2023-04-24T00:25:31.763Z,97647.72
2023-04-24T00:28:00.137Z,97645.22
2023-04-24T00:30:28.278Z,97654.47
2023-04-24T00:32:58.382Z,97651.53
2023-04-24T00:35:26.449Z,97656.31
2023-04-24T00:37:54.882Z,97654.78
2023-04-24T00:40:23.820Z,97654.22
2023-04-24T00:42:51.926Z,97661.81
2023-04-24T00:45:20.569Z,97647.69
2023-04-24T00:47:50.462Z,97638.88
2023-04-24T00:50:20.636Z,97638.88
2023-04-24T00:52:48.646Z,97642.72
2023-04-24T00:55:16.809Z,97646.03
2023-04-24T00:57:46.009Z,97641.34
2023-04-24T01:00:15.838Z,97642.75
2023-04-24T01:02:46.484Z,97631.59
2023-04-24T01:05:16.360Z,97636.28
2023-04-24T01:07:50.025Z,97634.88
2023-04-24T01:10:19.269Z,97634.97
2023-04-24T01:12:48.278Z,97630.94
2023-04-24T01:15:16.504Z,97631.59
2023-04-24T01:17:44.446Z,97632.63
2023-04-24T01:20:12.840Z,97622.16
2023-04-24T01:22:44.679Z,97630.91
2023-04-24T01:25:12.653Z,97625.56
2023-04-24T01:27:40.652Z,97620.97
2023-04-24T01:30:10.363Z,97609.34
2023-04-24T01:32:39.341Z,97616.47
2023-04-24T01:35:09.142Z,97611.69
2023-04-24T01:37:38.515Z,97606.38
2023-04-24T01:40:09.923Z,97605.66
2023-04-24T01:42:38.829Z,97607.94
2023-04-24T01:45:12.544Z,97602.66
2023-04-24T01:47:42.402Z,97609.97
2023-04-24T01:50:11.643Z,97600.97
2023-04-24T01:52:41.238Z,97608.38
2023-04-24T01:55:13.114Z,97608.81
2023-04-24T01:57:42.030Z,97601.81
2023-04-24T02:00:12.330Z,97600.63
2023-04-24T02:02:45.698Z,97604.63
2023-04-24T02:05:15.454Z,97606.81
2023-04-24T02:07:43.518Z,97607.75
2023-04-24T02:10:13.439Z,97602.81
2023-04-24T02:12:44.740Z,97596.97
2023-04-24T02:15:13.864Z,97605.81
2023-04-24T02:17:42.085Z,97602.72
2023-04-24T02:20:10.402Z,97601.38
2023-04-24T02:22:40.083Z,97606.66
2023-04-24T02:25:09.166Z,97608.91
2023-04-24T02:27:38.633Z,97610.63
2023-04-24T02:30:09.234Z,97607.59
2023-04-24T02:32:37.364Z,97606.78
2023-04-24T02:35:05.835Z,97610.00
2023-04-24T02:37:33.820Z,97612.78
2023-04-24T02:40:01.895Z,97615.28
2023-04-24T02:42:30.966Z,97629.16
2023-04-24T02:45:03.194Z,97623.25
2023-04-24T02:47:39.193Z,97625.34
2023-04-24T02:50:14.721Z,97618.91
2023-04-24T02:52:43.851Z,97619.38
2023-04-24T02:55:14.250Z,97618.09
2023-04-24T02:57:45.238Z,97616.44
2023-04-24T03:00:18.508Z,97609.72
2023-04-24T03:02:51.277Z,97596.63
2023-04-24T03:05:19.515Z,97600.66
2023-04-24T03:07:47.601Z,97598.66
2023-04-24T03:10:15.726Z,97605.28
2023-04-24T03:12:43.838Z,97601.47
2023-04-24T03:15:12.702Z,97593.13
2023-04-24T03:17:42.234Z,97597.03
2023-04-24T03:20:11.338Z,97601.03
2023-04-24T03:22:39.707Z,97604.44
2023-04-24T03:25:11.142Z,97601.28
2023-04-24T03:27:40.407Z,97594.16
2023-04-24T03:30:44.264Z,97603.13
2023-04-24T03:33:15.693Z,97596.69
2023-04-24T03:35:56.426Z,97594.19
2023-04-24T03:38:25.621Z,97593.09
2023-04-24T03:41:03.261Z,97590.59
2023-04-24T03:43:40.528Z,97590.78
2023-04-24T03:46:10.431Z,97593.72
2023-04-24T03:48:44.087Z,97589.44
2023-04-24T03:51:12.944Z,97596.06
2023-04-24T03:53:44.630Z,97590.91
2023-04-24T03:56:14.531Z,97598.41
2023-04-24T03:58:43.351Z,97594.63
2023-04-24T04:01:12.752Z,97597.69
2023-04-24T04:04:05.072Z,97603.25
2023-04-24T04:06:33.133Z,97602.84
2023-04-24T04:09:02.415Z,97607.84
2023-04-24T04:11:31.530Z,97606.69
2023-04-24T04:14:01.962Z,97618.31
2023-04-24T04:16:30.325Z,97621.75
2023-04-24T04:19:06.448Z,97627.66
2023-04-24T04:21:34.854Z,97642.19
2023-04-24T04:24:13.687Z,97649.56
2023-04-24T04:26:48.161Z,97690.53
2023-04-24T04:29:29.625Z,97680.13
2023-04-24T04:31:57.914Z,97680.19
2023-04-24T04:34:27.873Z,97685.31
2023-04-24T04:36:55.696Z,97684.94
2023-04-24T04:39:31.658Z,97686.00
2023-04-24T04:42:05.582Z,97695.97
2023-04-24T04:44:40.969Z,97701.34
2023-04-24T04:47:11.764Z,97699.72
2023-04-24T04:49:42.265Z,97701.28
2023-04-24T04:52:18.641Z,97705.06
2023-04-24T04:54:49.614Z,97715.41
2023-04-24T04:57:24.820Z,97713.09
2023-04-24T05:00:16.724Z,97727.97
2023-04-24T05:02:50.757Z,97724.56
2023-04-24T05:05:21.169Z,97731.59
2023-04-24T05:07:50.394Z,97730.41
2023-04-24T05:10:18.452Z,97741.16
2023-04-24T05:12:46.590Z,97746.47
2023-04-24T05:15:15.550Z,97751.78
2023-04-24T05:17:43.915Z,97750.38
2023-04-24T05:20:13.695Z,97749.22
2023-04-24T05:22:43.010Z,97748.25
2023-04-24T05:25:11.221Z,97758.16
2023-04-24T05:27:48.216Z,97761.84
2023-04-24T05:30:18.712Z,97771.31
2023-04-24T05:32:46.975Z,97767.63
2023-04-24T05:35:15.342Z,97766.69
2023-04-24T05:37:44.992Z,97774.53
2023-04-24T05:40:14.297Z,97781.50
2023-04-24T05:42:42.305Z,97786.22
2023-04-24T05:45:15.778Z,97796.84
2023-04-24T05:47:44.576Z,97804.44
2023-04-24T05:50:13.216Z,97808.66
2023-04-24T05:52:41.179Z,97810.38
2023-04-24T05:55:23.733Z,97803.94
2023-04-24T05:57:51.689Z,97807.44
2023-04-24T06:00:20.589Z,97821.81
2023-04-24T06:02:57.304Z,97818.47
2023-04-24T06:05:25.745Z,97825.59
2023-04-24T06:07:58.358Z,97825.47
2023-04-24T06:10:32.043Z,97826.25
2023-04-24T06:13:01.531Z,97821.03
2023-04-24T06:15:32.494Z,97824.66
2023-04-24T06:18:13.656Z,97822.94
2023-04-24T06:20:45.953Z,97821.97
2023-04-24T06:23:14.895Z,97821.44
2023-04-24T06:28:44.942Z,97820.31
2023-04-24T06:31:12.817Z,97822.25
2023-04-24T06:33:40.945Z,97814.94
2023-04-24T06:36:09.204Z,97807.34
2023-04-24T06:38:37.370Z,97806.00
2023-04-24T06:41:07.116Z,97809.84
2023-04-24T06:43:35.316Z,97816.22
2023-04-24T06:46:05.925Z,97812.22
2023-04-24T06:48:35.527Z,97810.44
2023-04-24T06:51:03.509Z,97813.56
2023-04-24T06:53:35.295Z,97809.91
2023-04-24T06:56:05.094Z,97817.44
2023-04-24T06:58:34.326Z,97816.09
2023-04-24T07:01:04.447Z,97823.19
2023-04-24T07:03:32.936Z,97811.88
2023-04-24T07:06:01.437Z,97812.81
2023-04-24T07:08:31.411Z,97813.81
2023-04-24T07:10:59.677Z,97804.56
2023-04-24T07:13:28.372Z,97804.06
2023-04-24T07:15:58.175Z,97810.59
2023-04-24T07:18:26.342Z,97805.22
2023-04-24T07:20:54.242Z,97820.16
2023-04-24T07:23:25.514Z,97819.59
2023-04-24T07:25:53.588Z,97827.81
2023-04-24T07:28:21.454Z,97836.69
2023-04-24T07:30:49.316Z,97836.31
2023-04-24T07:33:18.729Z,97835.94
2023-04-24T07:35:46.640Z,97839.72
2023-04-24T07:38:14.603Z,97827.91
2023-04-24T07:40:43.064Z,97832.28
2023-04-24T07:43:11.030Z,97837.69
2023-04-24T07:45:39.124Z,97846.34
2023-04-24T07:48:07.428Z,97864.84
2023-04-24T07:50:37.268Z,97850.53
2023-04-24T07:53:05.268Z,97854.16
2023-04-24T07:55:33.387Z,97859.41
2023-04-24T07:58:01.538Z,97854.75
2023-04-24T08:00:29.503Z,97863.56
2023-04-24T08:02:57.667Z,97872.03
2023-04-24T08:05:26.675Z,97874.28
2023-04-24T08:07:56.398Z,97866.44
2023-04-24T08:10:25.382Z,97871.53
2023-04-24T08:12:53.490Z,97867.00
2023-04-24T08:15:21.505Z,97876.38
2023-04-24T08:17:49.521Z,97883.56
2023-04-24T08:20:17.517Z,97899.50
2023-04-24T08:22:49.748Z,97889.16
2023-04-24T08:25:20.124Z,97892.13
2023-04-24T08:27:48.134Z,97900.72
2023-04-24T08:30:16.544Z,97906.34
2023-04-24T08:32:44.592Z,97904.38
2023-04-24T08:35:12.527Z,97909.16
2023-04-24T08:37:40.401Z,97916.41
2023-04-24T08:40:15.165Z,97908.22
2023-04-24T08:42:46.096Z,97911.63
2023-04-24T08:45:14.894Z,97920.75
2023-04-24T08:47:45.096Z,97911.75
2023-04-24T08:50:13.686Z,97934.94
2023-04-24T08:52:43.106Z,97923.00
2023-04-24T08:55:11.969Z,97926.44
2023-04-24T08:57:41.429Z,97924.38
2023-04-24T09:00:14.725Z,97938.53
2023-04-24T09:02:45.644Z,97940.66
2023-04-24T09:05:15.146Z,97935.66
2023-04-24T09:07:47.213Z,97941.22
2023-04-24T09:10:15.774Z,97942.22
2023-04-24T09:12:43.984Z,97943.75
2023-04-24T09:15:13.459Z,97947.75
2023-04-24T09:17:41.474Z,97950.00
2023-04-24T09:20:10.515Z,97950.75
2023-04-24T09:22:39.523Z,97970.59
2023-04-24T09:25:10.310Z,97971.06
2023-04-24T09:27:44.036Z,97975.25
2023-04-24T09:30:15.984Z,97986.81
2023-04-24T09:32:45.927Z,97980.03
2023-04-24T09:35:17.110Z,97976.69
2023-04-24T09:37:47.690Z,97983.78
2023-04-24T09:40:18.333Z,97983.75
2023-04-24T09:42:47.996Z,97975.44
2023-04-24T09:45:17.625Z,97967.75
2023-04-24T09:47:46.766Z,97960.91
2023-04-24T09:50:20.369Z,97956.59
2023-04-24T09:52:59.404Z,97964.31
2023-04-24T09:55:27.629Z,97987.03
2023-04-24T09:57:58.426Z,97994.66
2023-04-24T10:00:30.011Z,97996.53
2023-04-24T10:03:00.037Z,97986.59
2023-04-24T10:05:33.487Z,97999.91
2023-04-24T10:08:08.250Z,97990.41
2023-04-24T10:10:39.286Z,97990.03
2023-04-24T10:13:07.790Z,97987.78
2023-04-24T10:15:41.677Z,97989.38
2023-04-24T10:18:10.810Z,97991.09
2023-04-24T10:20:41.172Z,97993.47
2023-04-24T10:23:09.410Z,98003.75
2023-04-24T10:25:38.647Z,97989.06
2023-04-24T10:28:09.746Z,97996.41
2023-04-24T10:30:44.914Z,97999.97
2023-04-24T10:33:14.189Z,98005.50
2023-04-24T10:35:51.680Z,98002.56
2023-04-24T10:38:25.913Z,98004.22
2023-04-24T10:40:54.040Z,98009.84
2023-04-24T10:43:22.174Z,98011.19
2023-04-24T10:46:05.009Z,98015.22
2023-04-24T10:48:33.659Z,98018.06
2023-04-24T10:51:01.895Z,98018.78
2023-04-24T10:53:31.721Z,98011.75
2023-04-24T10:56:04.721Z,98017.19
2023-04-24T10:58:41.394Z,98013.03
2023-04-24T11:01:10.853Z,98021.91
2023-04-24T11:03:52.446Z,98025.06
2023-04-24T11:06:32.907Z,98027.59
2023-04-24T11:09:06.333Z,98028.69
2023-04-24T11:11:35.766Z,98032.03
2023-04-24T11:14:11.912Z,98034.19
2023-04-24T11:16:46.403Z,98038.41
2023-04-24T11:19:22.777Z,98050.47
2023-04-24T11:21:58.463Z,98049.13
2023-04-24T11:24:32.771Z,98048.28
2023-04-24T11:27:06.935Z,98041.13
2023-04-24T11:29:43.874Z,98047.53
2023-04-24T11:32:25.281Z,98050.03
2023-04-24T11:34:56.826Z,98050.19
2023-04-24T11:37:29.813Z,98044.19
2023-04-24T11:40:00.934Z,98047.25
2023-04-24T11:42:30.903Z,98056.41
2023-04-24T11:45:01.506Z,98044.41
2023-04-24T11:47:34.652Z,98063.94
2023-04-24T11:50:03.837Z,98069.63
2023-04-24T11:52:34.715Z,98067.91
2023-04-24T11:55:03.219Z,98077.34
2023-04-24T11:57:34.863Z,98072.13
2023-04-24T12:00:04.556Z,98075.47
2023-04-24T12:02:42.497Z,98074.09
2023-04-24T12:05:13.565Z,98079.19
2023-04-24T12:07:45.286Z,98070.31
2023-04-24T12:10:16.831Z,98071.81
2023-04-24T12:13:02.830Z,98067.25
2023-04-24T12:15:32.649Z,98080.78
2023-04-24T12:18:07.950Z,98075.13
2023-04-24T12:20:38.208Z,98071.59
2023-04-24T12:23:06.235Z,98071.59
2023-04-24T12:25:35.617Z,98077.06
2023-04-24T12:28:13.155Z,98086.59
2023-04-24T12:30:45.326Z,98073.63
2023-04-24T12:33:14.741Z,98078.03
2023-04-24T12:35:43.367Z,98080.63
2023-04-24T12:38:13.809Z,98080.03
2023-04-24T12:40:42.347Z,98081.13
2023-04-24T12:43:16.710Z,98079.94
2023-04-24T12:45:45.844Z,98083.06
2023-04-24T12:48:15.656Z,98092.16
2023-04-24T12:50:46.829Z,98086.84
2023-04-24T12:53:16.892Z,98086.78
2023-04-24T12:55:45.547Z,98094.13
2023-04-24T12:58:14.178Z,98094.41
2023-04-24T13:00:44.490Z,98098.91
2023-04-24T13:03:12.869Z,98113.88
2023-04-24T13:05:42.694Z,98121.41
2023-04-24T13:08:13.759Z,98115.22
2023-04-24T13:10:43.858Z,98113.56
2023-04-24T13:13:11.786Z,98111.03
2023-04-24T13:15:41.929Z,98100.47
2023-04-24T13:18:09.864Z,98100.78
2023-04-24T13:20:37.996Z,98100.94
2023-04-24T13:23:07.252Z,98096.00
2023-04-24T13:25:38.442Z,98100.66
2023-04-24T13:28:07.460Z,98095.59
2023-04-24T13:30:35.580Z,98097.44
2023-04-24T13:33:04.223Z,98099.88
2023-04-24T13:35:32.511Z,98097.41
2023-04-24T13:38:02.413Z,98090.75
2023-04-24T13:40:31.890Z,98091.28
2023-04-24T13:42:59.894Z,98097.78
2023-04-24T13:45:27.854Z,98098.47
2023-04-24T13:47:55.922Z,98098.94
2023-04-24T13:50:24.356Z,98101.72
2023-04-24T13:52:52.468Z,98107.63
2023-04-24T13:55:20.587Z,98094.69
2023-04-24T13:57:53.271Z,98097.25
2023-04-24T14:00:22.106Z,98099.50
2023-04-24T14:02:50.457Z,98104.59
2023-04-24T14:05:19.280Z,98094.81
2023-04-24T14:07:47.318Z,98094.50
2023-04-24T14:10:15.579Z,98099.06
2023-04-24T14:12:43.587Z,98095.63
2023-04-24T14:15:14.310Z,98090.94
2023-04-24T14:17:42.784Z,98090.91
2023-04-24T14:20:11.367Z,98095.19
2023-04-24T14:22:39.335Z,98092.13
2023-04-24T14:25:10.205Z,98092.06
2023-04-24T14:27:38.394Z,98095.75
2023-04-24T14:30:07.629Z,98098.41
2023-04-24T14:32:37.044Z,98093.84
2023-04-24T14:35:05.676Z,98085.94
2023-04-24T14:37:33.672Z,98093.72
2023-04-24T14:42:37.546Z,98095.13
2023-04-24T14:45:06.169Z,98096.59
2023-04-24T14:47:34.136Z,98087.78
2023-04-24T14:50:03.989Z,98089.41
2023-04-24T14:52:31.890Z,98088.53
2023-04-24T14:54:59.752Z,98087.03
2023-04-24T14:57:27.691Z,98087.16
2023-04-24T14:59:55.737Z,98082.38
2023-04-24T15:02:23.991Z,98082.00
2023-04-24T15:04:52.269Z,98081.38
2023-04-24T15:07:22.819Z,98077.72
2023-04-24T15:09:50.866Z,98091.56
2023-04-24T15:12:18.905Z,98092.38
2023-04-24T15:14:48.393Z,98104.00
2023-04-24T15:17:16.437Z,98095.25
2023-04-24T15:19:44.838Z,98093.94
2023-04-24T15:22:12.728Z,98101.16
2023-04-24T15:24:42.075Z,98100.69
2023-04-24T15:27:12.162Z,98103.25
2023-04-24T15:29:40.572Z,98103.28
2023-04-24T15:32:10.157Z,98103.13
2023-04-24T15:34:38.864Z,98106.25
2023-04-24T15:37:06.869Z,98108.97
2023-04-24T15:39:35.374Z,98099.44
2023-04-24T15:42:05.365Z,98098.41
2023-04-24T15:44:33.331Z,98102.06
2023-04-24T15:47:02.740Z,98101.63
2023-04-24T15:49:30.695Z,98107.22
2023-04-24T15:51:58.558Z,98091.19
2023-04-24T15:54:26.402Z,98090.28
2023-04-24T15:56:54.632Z,98090.44
2023-04-24T15:59:24.000Z,98086.00
2023-04-24T16:01:52.073Z,98087.66
2023-04-24T16:04:20.343Z,98091.50
2023-04-24T16:06:48.447Z,98090.84
2023-04-24T16:09:16.341Z,98089.59
2023-04-24T16:11:44.262Z,98097.28
2023-04-24T16:14:13.183Z,98096.28
2023-04-24T16:16:42.423Z,98089.75
2023-04-24T16:19:10.425Z,98096.53
2023-04-24T16:21:38.306Z,98097.50
2023-04-24T16:24:06.833Z,98093.63
2023-04-24T16:26:34.775Z,98093.38
2023-04-24T16:29:02.852Z,98087.66
2023-04-24T16:31:30.985Z,98080.56
2023-04-24T16:34:00.352Z,98084.28
2023-04-24T16:36:28.656Z,98083.78
2023-04-24T16:38:56.701Z,98101.81
2023-04-24T16:41:24.654Z,98096.47
2023-04-24T16:43:53.134Z,98088.97
2023-04-24T16:46:21.585Z,98088.25
2023-04-24T16:48:49.985Z,98078.97
2023-04-24T16:51:19.936Z,98086.47
2023-04-24T16:53:47.772Z,98085.41
2023-04-24T16:56:16.400Z,98083.38
2023-04-24T16:58:45.910Z,98091.66
2023-04-24T17:01:15.818Z,98082.84
2023-04-24T17:03:45.033Z,98086.03
2023-04-24T17:06:14.115Z,98078.63
2023-04-24T17:08:43.479Z,98091.94
2023-04-24T17:11:11.547Z,98090.84
2023-04-24T17:13:40.633Z,98086.44
2023-04-24T17:16:09.825Z,98089.28
2023-04-24T17:18:40.922Z,98084.06
2023-04-24T17:21:10.573Z,98087.72
2023-04-24T17:23:44.238Z,98078.13
2023-04-24T17:26:12.689Z,98088.91
2023-04-24T17:28:40.977Z,98086.47
2023-04-24T17:31:08.990Z,98083.66
2023-04-24T17:33:37.042Z,98083.50
2023-04-24T17:36:06.810Z,98089.22
2023-04-24T17:38:35.128Z,98082.03
2023-04-24T17:41:05.045Z,98083.66
2023-04-24T17:43:33.750Z,98082.75
2023-04-24T17:46:02.517Z,98081.72
2023-04-24T17:48:30.929Z,98091.63
2023-04-24T17:50:59.149Z,98086.09
2023-04-24T17:53:27.371Z,98088.69
2023-04-24T17:55:57.829Z,98074.75
2023-04-24T17:58:28.568Z,98086.38
2023-04-24T18:00:56.659Z,98081.84
2023-04-24T18:03:25.393Z,98092.00
2023-04-24T18:05:54.423Z,98083.94
2023-04-24T18:08:22.669Z,98091.22
2023-04-24T18:10:52.056Z,98089.22
2023-04-24T18:13:22.883Z,98094.50
2023-04-24T18:15:53.001Z,98096.09
2023-04-24T18:18:22.082Z,98106.69
2023-04-24T18:20:52.053Z,98098.47
2023-04-24T18:23:20.722Z,98113.25
2023-04-24T18:25:50.942Z,98109.44
2023-04-24T18:28:19.668Z,98110.19
2023-04-24T18:30:49.048Z,98114.56
2023-04-24T18:33:24.909Z,98118.91
2023-04-24T18:36:00.716Z,98112.63
2023-04-24T18:38:30.706Z,98113.84
2023-04-24T18:41:25.089Z,98113.97
2023-04-24T18:44:18.147Z,98117.81
2023-04-24T18:46:58.902Z,98121.16
2023-04-24T18:49:54.912Z,98118.56
2023-04-24T18:52:51.542Z,98125.09
2023-04-24T18:55:35.303Z,98127.56
2023-04-24T18:58:10.637Z,98129.88
2023-04-24T19:00:50.604Z,98136.94
2023-04-24T19:03:19.368Z,98129.16
2023-04-24T19:05:49.741Z,98135.94
2023-04-24T19:08:17.823Z,98134.53
2023-04-24T19:10:45.930Z,98138.25
2023-04-24T19:13:14.285Z,98136.03
2023-04-24T19:15:42.566Z,98142.19
2023-04-24T19:18:10.684Z,98140.03
2023-04-24T19:20:39.214Z,98143.22
2023-04-24T19:23:08.708Z,98143.16
2023-04-24T19:25:37.582Z,98147.69
2023-04-24T19:28:06.876Z,98151.19
2023-04-24T19:30:35.304Z,98148.13
2023-04-24T19:33:03.432Z,98146.56
2023-04-24T19:35:31.547Z,98151.63
2023-04-24T19:37:59.708Z,98161.22
2023-04-24T19:40:29.789Z,98159.56
2023-04-24T19:43:01.055Z,98165.09
2023-04-24T19:45:29.698Z,98156.22
2023-04-24T19:47:58.925Z,98162.25
2023-04-24T19:50:28.488Z,98157.88
2023-04-24T19:52:56.520Z,98170.88
2023-04-24T19:55:24.568Z,98167.28
2023-04-24T19:57:54.143Z,98169.91
2023-04-24T20:00:22.536Z,98170.13
2023-04-24T20:02:51.395Z,98159.63
2023-04-24T20:05:20.045Z,98153.06
2023-04-24T20:07:50.412Z,98156.66
2023-04-24T20:10:18.668Z,98162.38
2023-04-24T20:12:47.354Z,98149.53
2023-04-24T20:15:17.331Z,98154.66
2023-04-24T20:17:46.064Z,98158.91
2023-04-24T20:20:17.203Z,98161.69
2023-04-24T20:22:45.400Z,98160.59
2023-04-24T20:25:13.959Z,98162.78
2023-04-24T20:27:42.506Z,98161.03
2023-04-24T20:30:13.420Z,98163.38
2023-04-24T20:32:43.741Z,98156.53
2023-04-24T20:35:13.454Z,98165.91
2023-04-24T20:37:41.864Z,98159.63
2023-04-24T20:40:10.597Z,98167.22
2023-04-24T20:42:39.525Z,98156.88
2023-04-24T20:45:08.874Z,98156.81
2023-04-24T20:47:36.986Z,98155.00
2023-04-24T20:50:08.006Z,98149.94
2023-04-24T20:52:36.352Z,98150.50
2023-04-24T20:55:05.220Z,98148.16
2023-04-24T20:57:33.590Z,98152.34
2023-04-24T21:00:03.202Z,98149.25
2023-04-24T21:02:31.769Z,98148.19
2023-04-24T21:05:00.037Z,98152.13
2023-04-24T21:07:29.721Z,98149.59
2023-04-24T21:09:57.994Z,98151.72
2023-04-24T21:12:28.601Z,98152.69
2023-04-24T21:14:56.588Z,98156.44
2023-04-24T21:17:24.922Z,98158.53
2023-04-24T21:19:56.331Z,98160.34
2023-04-24T21:22:24.882Z,98149.88
2023-04-24T21:24:54.556Z,98148.78
2023-04-24T21:27:22.825Z,98148.88
2023-04-24T21:29:51.270Z,98153.94
2023-04-24T21:32:19.539Z,98143.88
2023-04-24T21:34:47.749Z,98143.06
2023-04-24T21:37:16.534Z,98140.63
2023-04-24T21:39:44.790Z,98142.59
2023-04-24T21:42:14.280Z,98141.00
2023-04-24T21:44:44.660Z,98135.88
2023-04-24T21:47:12.905Z,98134.78
2023-04-24T21:49:43.606Z,98138.78
2023-04-24T21:52:11.645Z,98140.13
2023-04-24T21:54:39.678Z,98138.53
2023-04-24T21:57:07.990Z,98133.59
2023-04-24T21:59:37.686Z,98128.34
2023-04-24T22:02:06.283Z,98121.97
2023-04-24T22:04:34.647Z,98124.72
2023-04-24T22:07:02.863Z,98126.88
2023-04-24T22:09:31.262Z,98117.72
2023-04-24T22:11:59.485Z,98114.41
2023-04-24T22:14:28.211Z,98104.09
2023-04-24T22:16:59.977Z,98101.00
2023-04-24T22:19:28.438Z,98105.75
2023-04-24T22:21:57.668Z,98101.94
2023-04-24T22:24:25.715Z,98098.38
2023-04-24T22:26:54.281Z,98098.22
2023-04-24T22:29:22.442Z,98093.91
2023-04-24T22:31:50.824Z,98098.34
2023-04-24T22:34:21.075Z,98096.41
2023-04-24T22:36:49.369Z,98086.53
2023-04-24T22:39:17.629Z,98086.78
2023-04-24T22:41:46.045Z,98083.34
2023-04-24T22:44:14.591Z,98081.44
2023-04-24T22:46:42.748Z,98081.59
2023-04-24T22:49:13.150Z,98086.44
2023-04-24T22:51:42.568Z,98086.19
2023-04-24T22:54:11.065Z,98082.63
2023-04-24T22:56:41.005Z,98083.03
2023-04-24T22:59:09.043Z,98074.66
2023-04-24T23:01:37.181Z,98077.63
2023-04-24T23:04:05.722Z,98076.50
2023-04-24T23:06:34.406Z,98077.06
2023-04-24T23:09:04.297Z,98077.03
2023-04-24T23:11:32.436Z,98071.47
2023-04-24T23:14:02.942Z,98081.22
2023-04-24T23:16:32.331Z,98082.34
2023-04-24T23:19:00.670Z,98083.06
2023-04-24T23:21:28.718Z,98083.75
2023-04-24T23:23:56.830Z,98089.84
2023-04-24T23:26:26.842Z,98090.56
2023-04-24T23:28:55.294Z,98087.91
2023-04-24T23:31:23.537Z,98085.13
2023-04-24T23:33:52.248Z,98080.47
2023-04-24T23:36:21.067Z,98081.91
2023-04-24T23:38:50.594Z,98083.63
2023-04-24T23:41:19.105Z,98080.88
2023-04-24T23:43:50.938Z,98076.78
2023-04-24T23:46:19.680Z,98081.41
2023-04-24T23:48:48.125Z,98073.25
2023-04-24T23:51:19.444Z,98072.16
2023-04-24T23:53:47.868Z,98069.50
2023-04-24T23:56:16.254Z,98073.22
2023-04-24T23:58:44.116Z,98068.09
